RJAW/IWO METAR and TAF weather

Enter ICAO airport designator
Station Type Date Time Source
RJAW METAR 2021/07/30 06:36 UTC NOAA

RJAW 300636Z 25017G27KT 4900 SHRA BR SCT010 BKN015 FEW015TCU 27/25 Q0999 RMK 4CU010 7CU015 1TCU015 A2953 TCU OHD MOV E


Station Type Date Time Source
RJAW Decoded METAR 2021/07/30 06:36 UTC NOAA

Iwojima, Japan (RJAW) 24-47N 141-19E 116M
Jul 30, 2021 - 02:36 AM EDT / 2021.07.30 0636 UTC
Wind: from the WSW (250 degrees) at 20 MPH (17 KT) gusting to 31 MPH (27 KT):0
Visibility: 3 mile(s):0
Sky conditions: mostly cloudy
Weather: rain showers; mist; Towering cumulus clouds observed
Temperature: 80 F (27 C)
Dew Point: 77 F (25 C)
Relative Humidity: 88%
Pressure (altimeter): 29.50 in. Hg (0999 hPa)
ob: RJAW 300636Z 25017G27KT 4900 SHRA BR SCT010 BKN015 FEW015TCU 27/25 Q0999 RMK 4CU010 7CU015 1TCU015 A2953 TCU OHD MOV E
cycle: 6

Station Type Date Time Source
RJAW TAF UTC NOAA

Error!

Example: see airport list